sensor_id;sensor_type;location;lat;lon;timestamp;P1;durP1;ratioP1;P2;durP2;ratioP2
27895;SDS011;15241;48.374;10.876;2023-08-17T00:04:41;6.00;;;4.70;;
27895;SDS011;15241;48.374;10.876;2023-08-17T00:09:59;7.40;;;5.55;;
27895;SDS011;15241;48.374;10.876;2023-08-17T00:15:17;7.47;;;5.37;;
27895;SDS011;15241;48.374;10.876;2023-08-17T00:20:34;8.50;;;5.17;;
27895;SDS011;15241;48.374;10.876;2023-08-17T00:25:51;7.92;;;5.22;;
27895;SDS011;15241;48.374;10.876;2023-08-17T00:31:09;7.03;;;5.12;;
27895;SDS011;15241;48.374;10.876;2023-08-17T00:36:27;9.08;;;4.95;;
27895;SDS011;15241;48.374;10.876;2023-08-17T00:41:44;5.92;;;5.17;;
27895;SDS011;15241;48.374;10.876;2023-08-17T00:47:02;5.40;;;4.87;;
27895;SDS011;15241;48.374;10.876;2023-08-17T00:52:20;7.92;;;5.05;;
27895;SDS011;15241;48.374;10.876;2023-08-17T00:57:39;6.45;;;4.80;;
27895;SDS011;15241;48.374;10.876;2023-08-17T01:02:57;5.33;;;4.58;;
27895;SDS011;15241;48.374;10.876;2023-08-17T01:08:14;10.58;;;5.37;;
27895;SDS011;15241;48.374;10.876;2023-08-17T01:13:34;7.10;;;5.30;;
27895;SDS011;15241;48.374;10.876;2023-08-17T01:18:52;5.80;;;5.25;;
27895;SDS011;15241;48.374;10.876;2023-08-17T01:24:12;6.15;;;5.55;;
27895;SDS011;15241;48.374;10.876;2023-08-17T01:29:30;6.97;;;5.60;;
27895;SDS011;15241;48.374;10.876;2023-08-17T01:34:48;6.03;;;5.40;;
27895;SDS011;15241;48.374;10.876;2023-08-17T01:40:08;6.08;;;5.33;;
27895;SDS011;15241;48.374;10.876;2023-08-17T01:45:27;6.35;;;5.05;;
27895;SDS011;15241;48.374;10.876;2023-08-17T01:50:45;6.00;;;5.33;;
27895;SDS011;15241;48.374;10.876;2023-08-17T01:56:03;6.03;;;5.42;;
27895;SDS011;15241;48.374;10.876;2023-08-17T02:01:21;7.65;;;6.00;;
27895;SDS011;15241;48.374;10.876;2023-08-17T02:06:38;6.67;;;5.20;;
27895;SDS011;15241;48.374;10.876;2023-08-17T02:11:56;8.98;;;5.40;;
27895;SDS011;15241;48.374;10.876;2023-08-17T02:17:14;8.15;;;6.50;;
27895;SDS011;15241;48.374;10.876;2023-08-17T02:22:31;7.10;;;5.35;;
27895;SDS011;15241;48.374;10.876;2023-08-17T02:27:48;8.65;;;6.78;;
27895;SDS011;15241;48.374;10.876;2023-08-17T02:33:06;7.25;;;6.55;;
27895;SDS011;15241;48.374;10.876;2023-08-17T02:38:24;11.38;;;6.85;;
27895;SDS011;15241;48.374;10.876;2023-08-17T02:43:41;7.92;;;7.08;;
27895;SDS011;15241;48.374;10.876;2023-08-17T02:48:59;7.65;;;6.90;;
27895;SDS011;15241;48.374;10.876;2023-08-17T02:54:16;8.83;;;7.22;;
27895;SDS011;15241;48.374;10.876;2023-08-17T02:59:34;10.20;;;8.35;;
27895;SDS011;15241;48.374;10.876;2023-08-17T03:04:51;8.13;;;7.33;;
27895;SDS011;15241;48.374;10.876;2023-08-17T03:10:09;10.85;;;7.47;;
27895;SDS011;15241;48.374;10.876;2023-08-17T03:15:27;10.05;;;7.47;;
27895;SDS011;15241;48.374;10.876;2023-08-17T03:20:45;10.58;;;7.45;;
27895;SDS011;15241;48.374;10.876;2023-08-17T03:26:02;9.30;;;7.60;;
27895;SDS011;15241;48.374;10.876;2023-08-17T03:31:20;9.18;;;8.25;;
27895;SDS011;15241;48.374;10.876;2023-08-17T03:36:38;11.00;;;8.28;;
27895;SDS011;15241;48.374;10.876;2023-08-17T03:41:55;10.68;;;9.10;;
27895;SDS011;15241;48.374;10.876;2023-08-17T03:47:13;11.33;;;7.83;;
27895;SDS011;15241;48.374;10.876;2023-08-17T03:52:31;8.28;;;7.12;;
27895;SDS011;15241;48.374;10.876;2023-08-17T03:57:49;11.50;;;8.38;;
27895;SDS011;15241;48.374;10.876;2023-08-17T04:03:06;8.85;;;7.00;;
27895;SDS011;15241;48.374;10.876;2023-08-17T04:08:24;10.75;;;8.30;;
27895;SDS011;15241;48.374;10.876;2023-08-17T04:13:41;8.45;;;7.00;;
27895;SDS011;15241;48.374;10.876;2023-08-17T04:18:59;8.33;;;7.33;;
27895;SDS011;15241;48.374;10.876;2023-08-17T04:24:16;7.85;;;6.95;;
27895;SDS011;15241;48.374;10.876;2023-08-17T04:29:34;9.10;;;7.42;;
27895;SDS011;15241;48.374;10.876;2023-08-17T04:34:52;9.98;;;7.75;;
27895;SDS011;15241;48.374;10.876;2023-08-17T04:40:10;9.35;;;7.60;;
27895;SDS011;15241;48.374;10.876;2023-08-17T04:45:28;12.35;;;7.83;;
27895;SDS011;15241;48.374;10.876;2023-08-17T04:50:45;8.43;;;7.10;;
27895;SDS011;15241;48.374;10.876;2023-08-17T04:56:03;11.70;;;7.78;;
27895;SDS011;15241;48.374;10.876;2023-08-17T05:01:21;11.35;;;7.75;;
27895;SDS011;15241;48.374;10.876;2023-08-17T05:06:39;9.53;;;7.47;;
27895;SDS011;15241;48.374;10.876;2023-08-17T05:11:57;9.68;;;8.60;;
27895;SDS011;15241;48.374;10.876;2023-08-17T05:17:14;8.88;;;7.97;;
27895;SDS011;15241;48.374;10.876;2023-08-17T05:22:31;9.53;;;8.00;;
27895;SDS011;15241;48.374;10.876;2023-08-17T05:27:49;10.38;;;8.23;;
27895;SDS011;15241;48.374;10.876;2023-08-17T05:33:06;8.75;;;7.83;;
27895;SDS011;15241;48.374;10.876;2023-08-17T05:38:24;10.05;;;8.73;;
27895;SDS011;15241;48.374;10.876;2023-08-17T05:43:42;11.33;;;8.58;;
27895;SDS011;15241;48.374;10.876;2023-08-17T05:48:59;13.32;;;10.15;;
27895;SDS011;15241;48.374;10.876;2023-08-17T05:54:17;11.70;;;8.78;;
27895;SDS011;15241;48.374;10.876;2023-08-17T05:59:35;10.63;;;9.55;;
27895;SDS011;15241;48.374;10.876;2023-08-17T06:04:52;12.07;;;10.60;;
27895;SDS011;15241;48.374;10.876;2023-08-17T06:10:10;11.33;;;10.05;;
27895;SDS011;15241;48.374;10.876;2023-08-17T06:15:29;11.78;;;10.58;;
27895;SDS011;15241;48.374;10.876;2023-08-17T06:20:46;11.05;;;9.95;;
27895;SDS011;15241;48.374;10.876;2023-08-17T06:26:03;17.12;;;12.75;;
27895;SDS011;15241;48.374;10.876;2023-08-17T06:31:21;15.83;;;13.98;;
27895;SDS011;15241;48.374;10.876;2023-08-17T06:36:38;17.70;;;15.45;;
27895;SDS011;15241;48.374;10.876;2023-08-17T06:41:55;17.82;;;15.68;;
27895;SDS011;15241;48.374;10.876;2023-08-17T06:47:13;16.20;;;14.50;;
27895;SDS011;15241;48.374;10.876;2023-08-17T06:52:30;17.12;;;15.15;;
27895;SDS011;15241;48.374;10.876;2023-08-17T06:57:48;18.73;;;15.80;;
27895;SDS011;15241;48.374;10.876;2023-08-17T07:03:06;18.52;;;14.05;;
27895;SDS011;15241;48.374;10.876;2023-08-17T07:08:24;16.48;;;14.78;;
27895;SDS011;15241;48.374;10.876;2023-08-17T07:13:41;20.50;;;14.53;;
27895;SDS011;15241;48.374;10.876;2023-08-17T07:18:59;16.97;;;15.18;;
27895;SDS011;15241;48.374;10.876;2023-08-17T07:24:16;19.48;;;15.05;;
27895;SDS011;15241;48.374;10.876;2023-08-17T07:29:34;17.00;;;14.55;;
27895;SDS011;15241;48.374;10.876;2023-08-17T07:34:51;15.53;;;12.98;;
27895;SDS011;15241;48.374;10.876;2023-08-17T07:40:10;18.15;;;12.73;;
27895;SDS011;15241;48.374;10.876;2023-08-17T07:45:28;13.43;;;11.48;;
27895;SDS011;15241;48.374;10.876;2023-08-17T07:50:48;14.33;;;12.37;;
27895;SDS011;15241;48.374;10.876;2023-08-17T07:56:05;13.58;;;12.18;;
27895;SDS011;15241;48.374;10.876;2023-08-17T08:01:22;15.38;;;11.75;;
27895;SDS011;15241;48.374;10.876;2023-08-17T08:06:40;13.72;;;11.12;;
27895;SDS011;15241;48.374;10.876;2023-08-17T08:11:58;11.88;;;10.65;;
27895;SDS011;15241;48.374;10.876;2023-08-17T08:17:16;12.25;;;10.20;;
27895;SDS011;15241;48.374;10.876;2023-08-17T08:22:33;11.28;;;10.08;;
27895;SDS011;15241;48.374;10.876;2023-08-17T08:27:51;11.28;;;9.78;;
27895;SDS011;15241;48.374;10.876;2023-08-17T08:33:09;10.60;;;9.43;;
27895;SDS011;15241;48.374;10.876;2023-08-17T08:38:26;12.43;;;8.05;;
27895;SDS011;15241;48.374;10.876;2023-08-17T08:43:44;10.85;;;9.63;;
27895;SDS011;15241;48.374;10.876;2023-08-17T08:49:01;9.63;;;8.63;;
27895;SDS011;15241;48.374;10.876;2023-08-17T08:54:22;9.83;;;8.80;;
27895;SDS011;15241;48.374;10.876;2023-08-17T08:59:41;9.85;;;8.63;;
27895;SDS011;15241;48.374;10.876;2023-08-17T09:05:00;11.55;;;8.90;;
27895;SDS011;15241;48.374;10.876;2023-08-17T09:10:20;9.48;;;7.83;;
27895;SDS011;15241;48.374;10.876;2023-08-17T09:15:37;12.30;;;8.80;;
27895;SDS011;15241;48.374;10.876;2023-08-17T09:20:55;10.15;;;8.60;;
27895;SDS011;15241;48.374;10.876;2023-08-17T09:26:12;10.38;;;8.13;;
27895;SDS011;15241;48.374;10.876;2023-08-17T09:31:31;10.30;;;8.60;;
27895;SDS011;15241;48.374;10.876;2023-08-17T09:36:48;10.55;;;8.65;;
27895;SDS011;15241;48.374;10.876;2023-08-17T09:42:06;9.15;;;7.97;;
27895;SDS011;15241;48.374;10.876;2023-08-17T09:47:25;8.20;;;7.40;;
27895;SDS011;15241;48.374;10.876;2023-08-17T09:52:43;7.70;;;6.97;;
27895;SDS011;15241;48.374;10.876;2023-08-17T09:58:01;9.03;;;6.28;;
27895;SDS011;15241;48.374;10.876;2023-08-17T10:03:19;6.25;;;5.75;;
27895;SDS011;15241;48.374;10.876;2023-08-17T10:08:39;7.10;;;5.72;;
27895;SDS011;15241;48.374;10.876;2023-08-17T10:13:59;6.25;;;5.72;;
27895;SDS011;15241;48.374;10.876;2023-08-17T10:19:18;6.28;;;5.67;;
27895;SDS011;15241;48.374;10.876;2023-08-17T10:24:38;6.40;;;5.75;;
27895;SDS011;15241;48.374;10.876;2023-08-17T10:29:56;6.05;;;5.53;;
27895;SDS011;15241;48.374;10.876;2023-08-17T10:35:15;5.80;;;5.40;;
27895;SDS011;15241;48.374;10.876;2023-08-17T10:40:37;6.30;;;5.60;;
27895;SDS011;15241;48.374;10.876;2023-08-17T10:45:55;8.95;;;5.53;;
27895;SDS011;15241;48.374;10.876;2023-08-17T10:51:14;6.15;;;5.65;;
27895;SDS011;15241;48.374;10.876;2023-08-17T10:56:32;7.25;;;6.60;;
27895;SDS011;15241;48.374;10.876;2023-08-17T11:01:50;6.50;;;5.50;;
27895;SDS011;15241;48.374;10.876;2023-08-17T11:07:09;7.80;;;5.35;;
27895;SDS011;15241;48.374;10.876;2023-08-17T11:12:30;7.28;;;5.70;;
27895;SDS011;15241;48.374;10.876;2023-08-17T11:17:47;5.92;;;5.17;;
27895;SDS011;15241;48.374;10.876;2023-08-17T11:23:04;6.67;;;5.55;;
27895;SDS011;15241;48.374;10.876;2023-08-17T11:28:23;6.20;;;5.20;;
27895;SDS011;15241;48.374;10.876;2023-08-17T11:33:41;6.28;;;5.67;;
27895;SDS011;15241;48.374;10.876;2023-08-17T11:38:59;9.40;;;6.12;;
27895;SDS011;15241;48.374;10.876;2023-08-17T11:44:18;4.97;;;4.37;;
27895;SDS011;15241;48.374;10.876;2023-08-17T11:49:36;4.72;;;4.33;;
27895;SDS011;15241;48.374;10.876;2023-08-17T11:54:55;5.95;;;4.42;;
27895;SDS011;15241;48.374;10.876;2023-08-17T12:00:17;4.75;;;4.35;;
27895;SDS011;15241;48.374;10.876;2023-08-17T12:05:36;4.70;;;4.40;;
27895;SDS011;15241;48.374;10.876;2023-08-17T12:10:53;7.62;;;4.55;;
27895;SDS011;15241;48.374;10.876;2023-08-17T12:16:14;4.47;;;4.17;;
27895;SDS011;15241;48.374;10.876;2023-08-17T12:21:33;6.78;;;4.03;;
27895;SDS011;15241;48.374;10.876;2023-08-17T12:26:51;6.75;;;4.58;;
27895;SDS011;15241;48.374;10.876;2023-08-17T12:32:09;6.40;;;4.70;;
27895;SDS011;15241;48.374;10.876;2023-08-17T12:37:26;4.60;;;4.20;;
27895;SDS011;15241;48.374;10.876;2023-08-17T12:42:43;4.35;;;4.05;;
27895;SDS011;15241;48.374;10.876;2023-08-17T12:48:01;5.15;;;4.65;;
27895;SDS011;15241;48.374;10.876;2023-08-17T12:53:19;6.95;;;4.50;;
27895;SDS011;15241;48.374;10.876;2023-08-17T12:58:36;8.40;;;5.22;;
27895;SDS011;15241;48.374;10.876;2023-08-17T13:03:54;4.90;;;4.55;;
27895;SDS011;15241;48.374;10.876;2023-08-17T13:09:11;6.75;;;4.58;;
27895;SDS011;15241;48.374;10.876;2023-08-17T13:14:29;11.40;;;6.25;;
27895;SDS011;15241;48.374;10.876;2023-08-17T13:19:47;19.12;;;7.22;;
27895;SDS011;15241;48.374;10.876;2023-08-17T13:25:06;8.98;;;5.40;;
27895;SDS011;15241;48.374;10.876;2023-08-17T13:30:24;6.30;;;4.22;;
27895;SDS011;15241;48.374;10.876;2023-08-17T13:35:42;6.37;;;4.30;;
27895;SDS011;15241;48.374;10.876;2023-08-17T13:40:59;8.95;;;4.35;;
27895;SDS011;15241;48.374;10.876;2023-08-17T13:46:17;6.20;;;4.37;;
27895;SDS011;15241;48.374;10.876;2023-08-17T13:51:35;6.20;;;4.10;;
27895;SDS011;15241;48.374;10.876;2023-08-17T13:56:52;5.40;;;3.85;;
27895;SDS011;15241;48.374;10.876;2023-08-17T14:02:10;7.10;;;4.15;;
27895;SDS011;15241;48.374;10.876;2023-08-17T14:07:28;7.53;;;4.45;;
27895;SDS011;15241;48.374;10.876;2023-08-17T14:12:46;4.53;;;4.05;;
27895;SDS011;15241;48.374;10.876;2023-08-17T14:18:04;3.83;;;3.52;;
27895;SDS011;15241;48.374;10.876;2023-08-17T14:23:22;4.62;;;3.72;;
27895;SDS011;15241;48.374;10.876;2023-08-17T14:28:40;4.33;;;3.65;;
27895;SDS011;15241;48.374;10.876;2023-08-17T14:33:57;5.62;;;3.70;;
27895;SDS011;15241;48.374;10.876;2023-08-17T14:39:15;5.75;;;3.90;;
27895;SDS011;15241;48.374;10.876;2023-08-17T14:44:32;5.67;;;3.65;;
27895;SDS011;15241;48.374;10.876;2023-08-17T14:49:50;4.95;;;4.15;;
27895;SDS011;15241;48.374;10.876;2023-08-17T15:00:44;13.50;;;6.65;;
27895;SDS011;15241;48.374;10.876;2023-08-17T15:06:02;6.05;;;4.85;;
27895;SDS011;15241;48.374;10.876;2023-08-17T15:11:19;5.50;;;3.47;;
27895;SDS011;15241;48.374;10.876;2023-08-17T15:16:37;7.83;;;2.90;;
27895;SDS011;15241;48.374;10.876;2023-08-17T15:21:54;5.50;;;3.35;;
27895;SDS011;15241;48.374;10.876;2023-08-17T15:27:12;5.45;;;2.58;;
27895;SDS011;15241;48.374;10.876;2023-08-17T15:32:31;4.92;;;2.72;;
27895;SDS011;15241;48.374;10.876;2023-08-17T15:37:48;5.97;;;2.40;;
27895;SDS011;15241;48.374;10.876;2023-08-17T15:43:05;8.60;;;2.95;;
27895;SDS011;15241;48.374;10.876;2023-08-17T15:48:23;5.72;;;2.70;;
27895;SDS011;15241;48.374;10.876;2023-08-17T15:53:41;8.05;;;2.98;;
27895;SDS011;15241;48.374;10.876;2023-08-17T15:58:58;9.03;;;3.50;;
27895;SDS011;15241;48.374;10.876;2023-08-17T16:04:16;8.33;;;3.92;;
27895;SDS011;15241;48.374;10.876;2023-08-17T16:09:33;9.08;;;3.72;;
27895;SDS011;15241;48.374;10.876;2023-08-17T16:14:52;5.37;;;3.95;;
27895;SDS011;15241;48.374;10.876;2023-08-17T16:20:10;9.23;;;4.53;;
27895;SDS011;15241;48.374;10.876;2023-08-17T16:25:29;11.08;;;4.80;;
27895;SDS011;15241;48.374;10.876;2023-08-17T16:30:46;8.25;;;4.40;;
27895;SDS011;15241;48.374;10.876;2023-08-17T16:36:04;9.30;;;4.30;;
27895;SDS011;15241;48.374;10.876;2023-08-17T16:41:21;8.00;;;4.20;;
27895;SDS011;15241;48.374;10.876;2023-08-17T16:46:39;9.63;;;4.12;;
27895;SDS011;15241;48.374;10.876;2023-08-17T16:51:58;7.40;;;4.22;;
27895;SDS011;15241;48.374;10.876;2023-08-17T16:57:15;10.10;;;4.10;;
27895;SDS011;15241;48.374;10.876;2023-08-17T17:02:33;8.90;;;4.15;;
27895;SDS011;15241;48.374;10.876;2023-08-17T17:07:50;9.50;;;4.08;;
27895;SDS011;15241;48.374;10.876;2023-08-17T17:13:08;6.45;;;4.03;;
27895;SDS011;15241;48.374;10.876;2023-08-17T17:18:26;10.13;;;4.28;;
27895;SDS011;15241;48.374;10.876;2023-08-17T17:23:44;10.05;;;4.10;;
27895;SDS011;15241;48.374;10.876;2023-08-17T17:29:01;7.90;;;4.30;;
27895;SDS011;15241;48.374;10.876;2023-08-17T17:34:19;9.65;;;4.92;;
27895;SDS011;15241;48.374;10.876;2023-08-17T17:39:36;7.42;;;3.77;;
27895;SDS011;15241;48.374;10.876;2023-08-17T17:44:54;10.20;;;5.35;;
27895;SDS011;15241;48.374;10.876;2023-08-17T17:50:12;13.05;;;5.40;;
27895;SDS011;15241;48.374;10.876;2023-08-17T17:55:30;12.15;;;4.53;;
27895;SDS011;15241;48.374;10.876;2023-08-17T18:00:48;7.33;;;4.47;;
27895;SDS011;15241;48.374;10.876;2023-08-17T18:06:06;10.80;;;5.00;;
27895;SDS011;15241;48.374;10.876;2023-08-17T18:11:24;9.13;;;4.42;;
27895;SDS011;15241;48.374;10.876;2023-08-17T18:16:42;5.47;;;2.90;;
27895;SDS011;15241;48.374;10.876;2023-08-17T18:22:00;4.75;;;2.85;;
27895;SDS011;15241;48.374;10.876;2023-08-17T18:27:17;7.00;;;2.47;;
27895;SDS011;15241;48.374;10.876;2023-08-17T18:32:34;6.20;;;3.12;;
27895;SDS011;15241;48.374;10.876;2023-08-17T18:37:51;6.08;;;3.37;;
27895;SDS011;15241;48.374;10.876;2023-08-17T18:43:09;5.08;;;3.05;;
27895;SDS011;15241;48.374;10.876;2023-08-17T18:48:27;6.70;;;2.83;;
27895;SDS011;15241;48.374;10.876;2023-08-17T18:53:44;7.03;;;3.30;;
27895;SDS011;15241;48.374;10.876;2023-08-17T18:59:02;5.83;;;2.90;;
27895;SDS011;15241;48.374;10.876;2023-08-17T19:04:20;7.40;;;3.98;;
27895;SDS011;15241;48.374;10.876;2023-08-17T19:09:38;7.55;;;2.95;;
27895;SDS011;15241;48.374;10.876;2023-08-17T19:14:56;8.15;;;3.95;;
27895;SDS011;15241;48.374;10.876;2023-08-17T19:20:14;8.63;;;3.33;;
27895;SDS011;15241;48.374;10.876;2023-08-17T19:25:32;8.15;;;3.30;;
27895;SDS011;15241;48.374;10.876;2023-08-17T19:30:49;7.53;;;3.67;;
27895;SDS011;15241;48.374;10.876;2023-08-17T19:36:07;4.87;;;3.22;;
27895;SDS011;15241;48.374;10.876;2023-08-17T19:41:24;5.15;;;3.02;;
27895;SDS011;15241;48.374;10.876;2023-08-17T19:46:42;4.67;;;2.80;;
27895;SDS011;15241;48.374;10.876;2023-08-17T19:51:59;4.65;;;3.37;;
27895;SDS011;15241;48.374;10.876;2023-08-17T19:57:16;7.50;;;3.72;;
27895;SDS011;15241;48.374;10.876;2023-08-17T20:02:34;7.30;;;3.35;;
27895;SDS011;15241;48.374;10.876;2023-08-17T20:07:52;7.20;;;3.65;;
27895;SDS011;15241;48.374;10.876;2023-08-17T20:13:10;5.85;;;3.50;;
27895;SDS011;15241;48.374;10.876;2023-08-17T20:18:27;6.58;;;3.85;;
27895;SDS011;15241;48.374;10.876;2023-08-17T20:23:44;8.65;;;4.00;;
27895;SDS011;15241;48.374;10.876;2023-08-17T20:29:02;5.28;;;4.20;;
27895;SDS011;15241;48.374;10.876;2023-08-17T20:34:19;6.15;;;4.42;;
27895;SDS011;15241;48.374;10.876;2023-08-17T20:39:36;7.70;;;4.53;;
27895;SDS011;15241;48.374;10.876;2023-08-17T20:44:54;5.87;;;4.20;;
27895;SDS011;15241;48.374;10.876;2023-08-17T20:50:12;7.45;;;4.58;;
27895;SDS011;15241;48.374;10.876;2023-08-17T20:55:29;9.53;;;4.97;;
27895;SDS011;15241;48.374;10.876;2023-08-17T21:00:49;9.38;;;4.50;;
27895;SDS011;15241;48.374;10.876;2023-08-17T21:06:06;6.37;;;4.08;;
27895;SDS011;15241;48.374;10.876;2023-08-17T21:11:24;7.05;;;4.58;;
27895;SDS011;15241;48.374;10.876;2023-08-17T21:16:42;9.53;;;4.37;;
27895;SDS011;15241;48.374;10.876;2023-08-17T21:21:59;9.25;;;4.30;;
27895;SDS011;15241;48.374;10.876;2023-08-17T21:27:17;5.70;;;3.42;;
27895;SDS011;15241;48.374;10.876;2023-08-17T21:32:34;5.67;;;2.75;;
27895;SDS011;15241;48.374;10.876;2023-08-17T21:37:52;4.75;;;3.27;;
27895;SDS011;15241;48.374;10.876;2023-08-17T21:43:09;8.05;;;3.70;;
27895;SDS011;15241;48.374;10.876;2023-08-17T21:48:26;4.45;;;3.22;;
27895;SDS011;15241;48.374;10.876;2023-08-17T21:53:44;5.75;;;3.40;;
27895;SDS011;15241;48.374;10.876;2023-08-17T21:59:01;4.70;;;3.70;;
27895;SDS011;15241;48.374;10.876;2023-08-17T22:04:19;4.08;;;3.00;;
27895;SDS011;15241;48.374;10.876;2023-08-17T22:09:36;6.90;;;3.67;;
27895;SDS011;15241;48.374;10.876;2023-08-17T22:14:54;7.80;;;3.55;;
27895;SDS011;15241;48.374;10.876;2023-08-17T22:20:12;6.50;;;3.65;;
27895;SDS011;15241;48.374;10.876;2023-08-17T22:25:29;6.15;;;4.28;;
27895;SDS011;15241;48.374;10.876;2023-08-17T22:30:47;7.87;;;3.30;;
27895;SDS011;15241;48.374;10.876;2023-08-17T22:36:04;7.80;;;3.52;;
27895;SDS011;15241;48.374;10.876;2023-08-17T22:41:22;7.33;;;3.00;;
27895;SDS011;15241;48.374;10.876;2023-08-17T22:46:39;5.30;;;3.33;;
27895;SDS011;15241;48.374;10.876;2023-08-17T22:51:58;5.20;;;3.52;;
27895;SDS011;15241;48.374;10.876;2023-08-17T22:57:16;3.90;;;2.75;;
27895;SDS011;15241;48.374;10.876;2023-08-17T23:02:33;4.53;;;2.95;;
27895;SDS011;15241;48.374;10.876;2023-08-17T23:07:51;4.03;;;2.87;;
27895;SDS011;15241;48.374;10.876;2023-08-17T23:13:09;4.35;;;2.80;;
27895;SDS011;15241;48.374;10.876;2023-08-17T23:18:26;4.20;;;2.75;;
27895;SDS011;15241;48.374;10.876;2023-08-17T23:23:44;5.87;;;3.67;;
27895;SDS011;15241;48.374;10.876;2023-08-17T23:29:02;4.83;;;2.80;;
27895;SDS011;15241;48.374;10.876;2023-08-17T23:34:20;7.58;;;3.10;;
27895;SDS011;15241;48.374;10.876;2023-08-17T23:39:37;3.90;;;2.92;;
27895;SDS011;15241;48.374;10.876;2023-08-17T23:44:55;6.75;;;3.08;;
27895;SDS011;15241;48.374;10.876;2023-08-17T23:50:12;5.05;;;3.15;;
27895;SDS011;15241;48.374;10.876;2023-08-17T23:55:30;4.92;;;3.05;;
